This is the latest recevied weather packets stored in our database for station/object VK3XEM-13. If no packets are shown the sender has not sent any weather packets the latest 1 day(s).
| Time | Temp. | Humidity | Pressure | Rain* | Wind** | Luminosity | Snow |
|---|---|---|---|---|---|---|---|
| 1778037434 | 15.56° C | 61% | 1015.8 hPa | 0 mm | 3.13 m/s, 246° | 319 W/m² | - |
| 1778036534 | 15.56° C | 62% | 1016.1 hPa | 0 mm | 0.89 m/s, 149° | 379 W/m² | - |
| 1778035634 | 15° C | 62% | 1016.1 hPa | 0 mm | 3.13 m/s, 162° | 225 W/m² | - |
| 1778034735 | 15° C | 62% | 1016.5 hPa | 0 mm | 3.13 m/s, 212° | 200 W/m² | - |
| 1778033834 | 15° C | 62% | 1016.8 hPa | 0 mm | 2.24 m/s, 111° | 149 W/m² | - |
| 1778032934 | 15° C | 61% | 1017.1 hPa | 0 mm | 1.79 m/s, 153° | 126 W/m² | - |
| 1778032035 | 15° C | 61% | 1017.1 hPa | 0 mm | 0.45 m/s, 190° | 129 W/m² | - |
| 1778031134 | 15° C | 61% | 1017.5 hPa | 0 mm | 1.34 m/s, 185° | 140 W/m² | - |
| 1778030234 | 14.44° C | 61% | 1017.8 hPa | 0 mm | 0.89 m/s, 205° | 173 W/m² | - |
| 1778029334 | 14.44° C | 60% | 1017.8 hPa | 0 mm | 2.68 m/s, 139° | 144 W/m² | - |
| 1778028434 | 14.44° C | 60% | 1017.8 hPa | 0 mm | 1.34 m/s, 58° | 203 W/m² | - |
| 1778027535 | 14.44° C | 61% | 1018.1 hPa | 0 mm | 1.34 m/s, 153° | 200 W/m² | - |
| 1778026634 | 14.44° C | 63% | 1018.5 hPa | 0 mm | 3.13 m/s, 167° | 166 W/m² | - |
| 1778025734 | 13.89° C | 65% | 1018.5 hPa | 0 mm | 0.89 m/s, 206° | 146 W/m² | - |
| 1778024834 | 13.89° C | 66% | 1018.5 hPa | 0 mm | 0.89 m/s, 202° | 117 W/m² | - |
| 1778023934 | 13.33° C | 66% | 1018.5 hPa | 0 mm | 0.89 m/s, 210° | 99 W/m² | - |
| 1778023034 | 13.33° C | 67% | 1018.5 hPa | 0 mm | 0.89 m/s, 194° | 90 W/m² | - |
| 1778022134 | 13.33° C | 68% | 1018.5 hPa | 0 mm | 1.34 m/s, 149° | 91 W/m² | - |
| 1778021234 | 13.33° C | 68% | 1018.8 hPa | 0 mm | 0.89 m/s, 217° | 84 W/m² | - |
| 1778020334 | 12.78° C | 70% | 1018.8 hPa | 0 mm | 0.89 m/s, 206° | 58 W/m² | - |
| 1778019434 | 12.78° C | 70% | 1018.8 hPa | 0 mm | 1.34 m/s, 183° | 45 W/m² | - |
| 1778018534 | 12.78° C | 71% | 1018.8 hPa | 0 mm | 0.89 m/s, 149° | 28 W/m² | - |
| 1778017634 | 12.78° C | 71% | 1018.8 hPa | 0 mm | 0.45 m/s, 191° | 18 W/m² | - |
| 1778016734 | 12.78° C | 71% | 1018.8 hPa | 0 mm | 0.45 m/s, 185° | 9 W/m² | - |
| 1778015834 | 12.22° C | 71% | 1018.8 hPa | 0 mm | 0.89 m/s, 156° | 4 W/m² | - |
* Rain latest hour (hover to see other rain measurements)
** Current wind speed in m/s (hover to see current wind gust speed)